Time;durP1;ratioP1;P1;durP2;ratioP2;P2;SDS_P1;SDS_P2;PMS_P1;PMS_P2;Temp;Humidity;BMP_temperature;BMP_pressure;BME280_temperature;BME280_humidity;BME280_pressure;Samples;Min_cycle;Max_cycle;Signal;HPM_P1;HPM_P2
2022/09/29 00:00:29;;;;;;;;;;;7.20;99.90;;;;;;4975622;28;20358;-85
2022/09/29 00:02:55;;;;;;;;;;;7.20;99.90;;;;;;4991261;28;20220;-85
2022/09/29 00:05:21;;;;;;;;;;;7.10;99.90;;;;;;4991199;28;19910;-85
2022/09/29 00:07:46;;;;;;;;;;;7.20;99.90;;;;;;4992077;28;19960;-88
2022/09/29 00:10:12;;;;;;;;;;;7.20;99.90;;;;;;4992855;28;19910;-87
2022/09/29 00:12:37;;;;;;;;;;;7.20;99.90;;;;;;4991973;28;19914;-85
2022/09/29 00:15:04;;;;;;;;;;;7.20;99.90;;;;;;4992644;28;19992;-88
2022/09/29 00:17:29;;;;;;;;;;;7.20;99.90;;;;;;4992834;28;20000;-87
2022/09/29 00:19:55;;;;;;;;;;;7.20;99.90;;;;;;4992515;28;19960;-87
2022/09/29 00:22:20;;;;;;;;;;;7.10;99.90;;;;;;4991883;28;19914;-87
2022/09/29 00:24:47;;;;;;;;;;;7.10;99.90;;;;;;4992215;28;20362;-87
2022/09/29 00:27:16;;;;;;;;;;;7.10;99.90;;;;;;4991412;28;19949;-85
2022/09/29 00:29:41;;;;;;;;;;;7.10;99.90;;;;;;4991124;28;19932;-85
2022/09/29 00:32:07;;;;;;;;;;;7.10;99.90;;;;;;4991126;28;20000;-87
2022/09/29 00:34:32;;;;;;;;;;;7.10;99.90;;;;;;4990730;28;19976;-86
2022/09/29 00:36:58;;;;;;;;;;;7.20;99.90;;;;;;4990606;28;20403;-85
2022/09/29 00:39:24;;;;;;;;;;;7.20;99.90;;;;;;4990084;28;20279;-86
2022/09/29 00:41:49;;;;;;;;;;;7.20;99.90;;;;;;4990623;28;19910;-85
2022/09/29 00:44:15;;;;;;;;;;;7.10;99.90;;;;;;4990412;28;20294;-85
2022/09/29 00:46:51;;;;;;;;;;;7.20;99.90;;;;;;4990560;28;19964;-85
2022/09/29 00:49:18;;;;;;;;;;;7.20;99.90;;;;;;4990604;28;20658;-86
2022/09/29 00:51:48;;;;;;;;;;;7.20;99.90;;;;;;4990484;28;19921;-86
2022/09/29 00:54:14;;;;;;;;;;;7.20;99.90;;;;;;4990394;28;19914;-85
2022/09/29 00:56:41;;;;;;;;;;;7.20;99.90;;;;;;4990898;28;19956;-85
2022/09/29 00:59:08;;;;;;;;;;;7.20;99.90;;;;;;4990466;28;19925;-85
2022/09/29 01:01:34;;;;;;;;;;;7.20;99.90;;;;;;4990723;28;20263;-85
2022/09/29 01:04:12;;;;;;;;;;;7.20;99.90;;;;;;4975207;28;19916;-85
2022/09/29 01:06:43;;;;;;;;;;;7.20;99.90;;;;;;4990508;28;19910;-85
2022/09/29 01:09:10;;;;;;;;;;;7.20;99.90;;;;;;4990606;28;19957;-85
2022/09/29 01:11:36;;;;;;;;;;;7.10;99.90;;;;;;4990205;28;19906;-85
2022/09/29 01:14:03;;;;;;;;;;;7.10;99.90;;;;;;4990043;28;19910;-85
2022/09/29 01:16:30;;;;;;;;;;;7.10;99.90;;;;;;4990243;28;19914;-85
2022/09/29 01:18:57;;;;;;;;;;;7.10;99.90;;;;;;4990926;28;20009;-87
2022/09/29 01:21:46;;;;;;;;;;;7.20;99.90;;;;;;4976359;28;19939;-87
2022/09/29 01:24:12;;;;;;;;;;;7.20;99.90;;;;;;4956713;28;19957;-87
2022/09/29 01:27:00;;;;;;;;;;;7.20;99.90;;;;;;4991375;28;19910;-87
2022/09/29 01:29:28;;;;;;;;;;;7.10;99.90;;;;;;4991388;28;19910;-87
2022/09/29 01:32:13;;;;;;;;;;;7.10;99.90;;;;;;4991247;28;20290;-87
2022/09/29 01:34:44;;;;;;;;;;;7.10;99.90;;;;;;4990283;28;19956;-87
2022/09/29 01:37:18;;;;;;;;;;;7.10;99.90;;;;;;4991234;28;19914;-87
2022/09/29 01:39:53;;;;;;;;;;;7.10;99.90;;;;;;4991078;28;19910;-85
2022/09/29 01:42:25;;;;;;;;;;;7.10;99.90;;;;;;4990475;28;19910;-87
2022/09/29 01:44:53;;;;;;;;;;;7.10;99.90;;;;;;4990437;28;19910;-85
2022/09/29 01:47:25;;;;;;;;;;;7.00;99.90;;;;;;4989343;28;20004;-85
2022/09/29 01:50:03;;;;;;;;;;;7.00;99.90;;;;;;4989899;28;19910;-86
2022/09/29 01:52:31;;;;;;;;;;;6.80;99.90;;;;;;4973298;28;19918;-85
2022/09/29 01:54:59;;;;;;;;;;;6.70;99.90;;;;;;4989769;28;19949;-86
2022/09/29 01:57:31;;;;;;;;;;;6.50;99.90;;;;;;4989702;28;19917;-85
2022/09/29 02:00:00;;;;;;;;;;;6.50;99.90;;;;;;4990054;28;19914;-87
2022/09/29 02:02:33;;;;;;;;;;;6.40;99.90;;;;;;4990845;28;19960;-87
2022/09/29 02:05:01;;;;;;;;;;;6.10;99.90;;;;;;4989467;28;19914;-85
2022/09/29 02:07:30;;;;;;;;;;;5.90;99.90;;;;;;4989427;28;20368;-85
2022/09/29 02:10:02;;;;;;;;;;;5.80;99.90;;;;;;4990864;28;19961;-87
2022/09/29 02:12:31;;;;;;;;;;;5.60;99.90;;;;;;4990743;28;19914;-87
2022/09/29 02:14:57;;;;;;;;;;;5.50;99.90;;;;;;4990876;28;20361;-88
2022/09/29 02:17:30;;;;;;;;;;;5.40;99.90;;;;;;4990500;28;19993;-85
2022/09/29 02:19:55;;;;;;;;;;;5.40;99.90;;;;;;4989451;28;19913;-85
2022/09/29 02:22:21;;;;;;;;;;;5.30;99.90;;;;;;4989014;28;20255;-85
2022/09/29 02:24:48;;;;;;;;;;;5.40;99.90;;;;;;4989135;28;20381;-85
2022/09/29 02:27:14;;;;;;;;;;;5.60;99.90;;;;;;4989184;28;19957;-85
2022/09/29 02:29:39;;;;;;;;;;;5.80;99.90;;;;;;4989648;28;19960;-85
2022/09/29 02:32:08;;;;;;;;;;;6.00;99.90;;;;;;4989119;28;19953;-85
2022/09/29 02:34:36;;;;;;;;;;;6.10;99.90;;;;;;4989017;28;19964;-85
2022/09/29 02:37:02;;;;;;;;;;;6.20;99.90;;;;;;4989767;28;19977;-85
2022/09/29 02:39:27;;;;;;;;;;;6.30;99.90;;;;;;4989363;28;19910;-85
2022/09/29 02:42:15;;;;;;;;;;;6.40;99.90;;;;;;4989532;28;19918;-85
2022/09/29 02:44:51;;;;;;;;;;;6.50;99.90;;;;;;4988967;28;20575;-85
2022/09/29 02:47:34;;;;;;;;;;;6.50;99.90;;;;;;4992953;28;19961;-85
2022/09/29 02:50:06;;;;;;;;;;;6.50;99.90;;;;;;4992757;28;20285;-85
2022/09/29 02:52:37;;;;;;;;;;;6.60;99.90;;;;;;4993079;28;20377;-85
2022/09/29 02:55:05;;;;;;;;;;;6.60;99.90;;;;;;4992635;28;19917;-86
2022/09/29 02:57:38;;;;;;;;;;;6.70;99.90;;;;;;4992451;28;19913;-85
2022/09/29 03:00:09;;;;;;;;;;;6.70;99.90;;;;;;4992792;28;20012;-87
2022/09/29 03:02:36;;;;;;;;;;;6.80;99.90;;;;;;4994124;28;19956;-88
2022/09/29 03:05:02;;;;;;;;;;;6.80;99.90;;;;;;4994185;28;19906;-87
2022/09/29 03:07:28;;;;;;;;;;;7.00;99.90;;;;;;4993635;28;20282;-85
2022/09/29 03:09:53;;;;;;;;;;;6.80;99.90;;;;;;4992405;28;19910;-85
2022/09/29 03:12:19;;;;;;;;;;;6.80;99.90;;;;;;4992300;28;19910;-85
2022/09/29 03:14:45;;;;;;;;;;;6.80;99.90;;;;;;4991893;28;19917;-85
2022/09/29 03:17:10;;;;;;;;;;;6.90;99.90;;;;;;4992386;28;19968;-85
2022/09/29 03:19:36;;;;;;;;;;;6.80;99.90;;;;;;4992408;28;19941;-86
2022/09/29 03:22:02;;;;;;;;;;;6.90;99.90;;;;;;4992621;28;19914;-85
2022/09/29 03:24:28;;;;;;;;;;;6.90;99.90;;;;;;4992514;28;20440;-85
2022/09/29 03:26:54;;;;;;;;;;;6.90;99.90;;;;;;4992391;28;20004;-85
2022/09/29 03:29:19;;;;;;;;;;;7.00;99.90;;;;;;4992019;28;19910;-86
2022/09/29 03:31:45;;;;;;;;;;;7.00;99.90;;;;;;4992026;28;20384;-85
2022/09/29 03:34:10;;;;;;;;;;;7.00;99.90;;;;;;4991539;28;19914;-86
2022/09/29 03:36:36;;;;;;;;;;;6.90;99.90;;;;;;4992189;28;19910;-85
2022/09/29 03:39:02;;;;;;;;;;;6.90;99.90;;;;;;4992068;28;19981;-85
2022/09/29 03:41:27;;;;;;;;;;;6.80;99.90;;;;;;4992104;28;19917;-86
2022/09/29 03:43:53;;;;;;;;;;;6.80;99.90;;;;;;4991773;28;19964;-85
2022/09/29 03:46:18;;;;;;;;;;;6.80;99.90;;;;;;4992065;28;20262;-85
2022/09/29 03:48:44;;;;;;;;;;;6.80;99.90;;;;;;4991803;28;19910;-85
2022/09/29 03:51:09;;;;;;;;;;;6.80;99.90;;;;;;4991733;28;19914;-85
2022/09/29 03:53:35;;;;;;;;;;;6.80;99.90;;;;;;4991404;28;19914;-85
2022/09/29 03:56:02;;;;;;;;;;;6.90;99.90;;;;;;4991906;28;19949;-85
2022/09/29 03:58:27;;;;;;;;;;;6.80;99.90;;;;;;4975428;28;19910;-85
2022/09/29 04:00:53;;;;;;;;;;;6.90;99.90;;;;;;4991296;28;19920;-85
2022/09/29 04:03:19;;;;;;;;;;;6.80;99.90;;;;;;4991338;28;19969;-86
2022/09/29 04:05:45;;;;;;;;;;;6.80;99.90;;;;;;4991472;28;19965;-85
2022/09/29 04:08:11;;;;;;;;;;;6.90;99.90;;;;;;4991270;28;19910;-86
2022/09/29 04:10:37;;;;;;;;;;;6.80;99.90;;;;;;4991198;28;20001;-85
2022/09/29 04:13:03;;;;;;;;;;;6.90;99.90;;;;;;4991169;28;20000;-84
2022/09/29 04:15:29;;;;;;;;;;;6.80;99.90;;;;;;4991280;28;19914;-85
2022/09/29 04:17:55;;;;;;;;;;;6.80;99.90;;;;;;4991311;28;19969;-86
2022/09/29 04:20:20;;;;;;;;;;;6.70;99.90;;;;;;4991268;28;19913;-85
2022/09/29 04:22:46;;;;;;;;;;;6.70;99.90;;;;;;4991203;28;19968;-85
2022/09/29 04:25:11;;;;;;;;;;;6.80;99.90;;;;;;4990913;28;19910;-85
2022/09/29 04:27:37;;;;;;;;;;;6.70;99.90;;;;;;4991072;28;19910;-85
2022/09/29 04:30:03;;;;;;;;;;;6.80;99.90;;;;;;4991291;28;19910;-85
2022/09/29 04:32:29;;;;;;;;;;;6.80;99.90;;;;;;4991115;28;19918;-85
2022/09/29 04:34:54;;;;;;;;;;;6.80;99.90;;;;;;4992335;28;19910;-87
2022/09/29 04:37:20;;;;;;;;;;;6.80;99.90;;;;;;4992025;28;19909;-87
2022/09/29 04:39:46;;;;;;;;;;;6.80;99.90;;;;;;4992092;28;19914;-87
2022/09/29 04:42:11;;;;;;;;;;;6.80;99.90;;;;;;4991787;28;19910;-87
2022/09/29 04:44:37;;;;;;;;;;;6.80;99.90;;;;;;4991951;28;19910;-87
2022/09/29 04:47:02;;;;;;;;;;;6.80;99.90;;;;;;4991777;28;20277;-87
2022/09/29 04:49:28;;;;;;;;;;;6.80;99.90;;;;;;4991667;28;20409;-87
2022/09/29 04:51:53;;;;;;;;;;;6.80;99.90;;;;;;4991708;28;19914;-87
2022/09/29 04:54:19;;;;;;;;;;;6.80;99.90;;;;;;4976604;28;19913;-87
2022/09/29 04:56:47;;;;;;;;;;;6.80;99.90;;;;;;4991473;28;19913;-87
2022/09/29 04:59:12;;;;;;;;;;;6.70;99.90;;;;;;4991718;28;20349;-87
2022/09/29 05:01:38;;;;;;;;;;;6.70;99.90;;;;;;4976686;28;19910;-87
2022/09/29 05:04:04;;;;;;;;;;;6.70;99.90;;;;;;4991569;28;20026;-87
2022/09/29 05:06:29;;;;;;;;;;;6.70;99.90;;;;;;4991555;28;19910;-88
2022/09/29 05:08:55;;;;;;;;;;;6.70;99.90;;;;;;4991037;28;19910;-87
2022/09/29 05:11:20;;;;;;;;;;;6.70;99.90;;;;;;4976263;28;19993;-88
2022/09/29 05:13:49;;;;;;;;;;;6.70;99.90;;;;;;4991241;28;19917;-87
2022/09/29 05:16:15;;;;;;;;;;;6.70;99.90;;;;;;4976169;28;19913;-85
2022/09/29 05:18:41;;;;;;;;;;;6.70;99.90;;;;;;4990189;28;20013;-85
2022/09/29 05:21:07;;;;;;;;;;;6.70;99.90;;;;;;4990352;28;19910;-88
2022/09/29 05:23:33;;;;;;;;;;;6.60;99.90;;;;;;4990204;28;19909;-87
2022/09/29 05:26:03;;;;;;;;;;;6.60;99.90;;;;;;4989890;28;20013;-86
2022/09/29 05:28:29;;;;;;;;;;;6.60;99.90;;;;;;4990083;28;19914;-87
2022/09/29 05:30:54;;;;;;;;;;;6.70;99.90;;;;;;4990138;28;20683;-86
2022/09/29 05:33:20;;;;;;;;;;;6.60;99.90;;;;;;4989492;28;20428;-87
2022/09/29 05:35:45;;;;;;;;;;;6.70;99.90;;;;;;4990351;28;19981;-88
2022/09/29 05:38:12;;;;;;;;;;;6.70;99.90;;;;;;4990716;28;19910;-88
2022/09/29 05:40:38;;;;;;;;;;;6.80;99.90;;;;;;4990191;28;19960;-86
2022/09/29 05:43:04;;;;;;;;;;;6.70;99.90;;;;;;4989450;28;19910;-86
2022/09/29 05:45:30;;;;;;;;;;;6.70;99.90;;;;;;4988975;28;20424;-87
2022/09/29 05:47:56;;;;;;;;;;;6.70;99.90;;;;;;4989064;28;19913;-87
2022/09/29 05:50:22;;;;;;;;;;;6.70;99.90;;;;;;4989257;28;20389;-87
2022/09/29 05:52:48;;;;;;;;;;;6.70;99.90;;;;;;4989065;28;19917;-86
2022/09/29 05:55:14;;;;;;;;;;;6.60;99.90;;;;;;4989101;28;19936;-86
2022/09/29 05:57:39;;;;;;;;;;;6.60;99.90;;;;;;4989490;28;20004;-87
2022/09/29 06:00:06;;;;;;;;;;;6.50;99.90;;;;;;4989430;28;19968;-87
2022/09/29 06:02:36;;;;;;;;;;;6.50;99.90;;;;;;4989628;28;19965;-87
2022/09/29 06:05:02;;;;;;;;;;;6.50;99.90;;;;;;4990516;28;19910;-88
2022/09/29 06:07:28;;;;;;;;;;;6.60;99.90;;;;;;4990320;28;20308;-89
2022/09/29 06:09:53;;;;;;;;;;;6.60;99.90;;;;;;4975298;28;20255;-88
2022/09/29 06:12:19;;;;;;;;;;;6.80;99.90;;;;;;4990260;28;20313;-88
2022/09/29 06:14:44;;;;;;;;;;;6.80;99.90;;;;;;4990109;28;19929;-88
2022/09/29 06:17:10;;;;;;;;;;;6.90;99.90;;;;;;4990335;28;19910;-89
2022/09/29 06:19:35;;;;;;;;;;;6.80;99.90;;;;;;4990839;28;19929;-89
2022/09/29 06:22:01;;;;;;;;;;;6.70;99.90;;;;;;4996687;28;19929;-88
2022/09/29 06:24:27;;;;;;;;;;;6.70;99.90;;;;;;4996334;28;20317;-87
2022/09/29 06:26:52;;;;;;;;;;;6.70;99.90;;;;;;4980142;28;19996;-88
2022/09/29 06:29:18;;;;;;;;;;;6.70;99.90;;;;;;4981761;28;19910;-89
2022/09/29 06:31:43;;;;;;;;;;;6.80;99.90;;;;;;4977404;28;19914;-88
2022/09/29 06:34:09;;;;;;;;;;;6.90;99.90;;;;;;4981172;28;19921;-88
2022/09/29 06:39:19;;;;;;;;;;;6.90;99.90;;;;;;4996616;28;19926;-88
2022/09/29 06:41:52;;;;;;;;;;;7.00;99.90;;;;;;4997714;28;19996;-88
2022/09/29 06:44:18;;;;;;;;;;;7.10;99.90;;;;;;4996828;28;19933;-89
2022/09/29 06:46:44;;;;;;;;;;;7.00;99.90;;;;;;4996460;28;19913;-89
2022/09/29 06:49:10;;;;;;;;;;;6.90;99.90;;;;;;4981770;28;20719;-88
2022/09/29 06:51:36;;;;;;;;;;;6.90;99.90;;;;;;4996265;28;19922;-89
2022/09/29 06:54:01;;;;;;;;;;;6.90;99.90;;;;;;4996497;28;19910;-89
2022/09/29 06:56:28;;;;;;;;;;;6.90;99.90;;;;;;4980197;28;19910;-88
2022/09/29 06:58:54;;;;;;;;;;;7.00;99.90;;;;;;4996035;28;19964;-89
2022/09/29 07:01:19;;;;;;;;;;;7.20;99.90;;;;;;4996024;28;20008;-88
2022/09/29 07:03:45;;;;;;;;;;;7.30;99.90;;;;;;4995517;28;19910;-88
2022/09/29 07:06:10;;;;;;;;;;;7.40;99.90;;;;;;4995632;28;19910;-88
2022/09/29 07:08:38;;;;;;;;;;;7.50;99.90;;;;;;4995843;28;20671;-89
2022/09/29 07:11:04;;;;;;;;;;;7.60;99.90;;;;;;4995847;28;19913;-88
2022/09/29 07:13:30;;;;;;;;;;;7.90;99.90;;;;;;4995586;28;19918;-88
2022/09/29 07:16:02;;;;;;;;;;;8.00;99.90;;;;;;4996152;28;19914;-89
2022/09/29 07:18:28;;;;;;;;;;;8.20;99.90;;;;;;4995572;28;20269;-88
2022/09/29 07:20:55;;;;;;;;;;;8.50;99.90;;;;;;4995603;28;19906;-89
2022/09/29 07:23:20;;;;;;;;;;;8.70;99.90;;;;;;4995795;28;19910;-88
2022/09/29 07:25:46;;;;;;;;;;;8.90;99.90;;;;;;4995881;28;20371;-88
2022/09/29 07:28:12;;;;;;;;;;;8.90;99.90;;;;;;4995583;28;20217;-88
2022/09/29 07:30:38;;;;;;;;;;;9.00;99.90;;;;;;4995870;28;19972;-88
2022/09/29 07:33:03;;;;;;;;;;;8.90;99.90;;;;;;4992584;28;19918;-89
2022/09/29 07:35:29;;;;;;;;;;;8.80;99.90;;;;;;4977939;28;19917;-89
2022/09/29 07:37:55;;;;;;;;;;;8.70;99.90;;;;;;4990168;28;19917;-89
2022/09/29 07:40:21;;;;;;;;;;;8.70;99.90;;;;;;4992702;28;20388;-88
2022/09/29 07:42:47;;;;;;;;;;;8.90;99.90;;;;;;4992830;28;19910;-89
2022/09/29 07:45:14;;;;;;;;;;;9.10;99.90;;;;;;4991416;28;19953;-87
2022/09/29 07:47:39;;;;;;;;;;;9.20;99.90;;;;;;4991297;28;19910;-87
2022/09/29 07:50:05;;;;;;;;;;;9.30;99.90;;;;;;4991411;28;19932;-87
2022/09/29 07:52:30;;;;;;;;;;;9.00;99.90;;;;;;4977014;28;19910;-88
2022/09/29 07:54:56;;;;;;;;;;;8.80;99.90;;;;;;4992032;28;19914;-89
2022/09/29 07:57:22;;;;;;;;;;;9.00;99.90;;;;;;4991993;28;19941;-89
2022/09/29 07:59:47;;;;;;;;;;;9.20;99.90;;;;;;4991701;28;20314;-89
2022/09/29 08:02:13;;;;;;;;;;;9.40;99.90;;;;;;4991825;28;20385;-89
2022/09/29 08:04:39;;;;;;;;;;;9.40;99.90;;;;;;4992235;28;19910;-88
2022/09/29 08:07:05;;;;;;;;;;;9.40;99.90;;;;;;4992039;28;19964;-89
2022/09/29 08:09:30;;;;;;;;;;;9.50;99.90;;;;;;4991905;28;19996;-90
2022/09/29 08:11:56;;;;;;;;;;;9.80;99.90;;;;;;4991836;28;19917;-87
2022/09/29 08:14:21;;;;;;;;;;;9.70;99.90;;;;;;4991410;28;19914;-86
2022/09/29 08:18:50;;;;;;;;;;;9.60;99.90;;;;;;5096891;28;19922;-87
2022/09/29 08:21:16;;;;;;;;;;;9.60;99.90;;;;;;5084205;28;20023;-87
2022/09/29 08:23:42;;;;;;;;;;;9.70;99.90;;;;;;5102721;28;20613;-88
2022/09/29 08:26:09;;;;;;;;;;;10.10;99.90;;;;;;5078665;28;19922;-87
2022/09/29 08:28:36;;;;;;;;;;;10.40;99.90;;;;;;5097909;28;20409;-87
2022/09/29 08:31:02;;;;;;;;;;;10.60;99.90;;;;;;5098142;28;19916;-88
2022/09/29 08:33:28;;;;;;;;;;;10.50;99.90;;;;;;5105892;28;19912;-88
2022/09/29 08:35:57;;;;;;;;;;;10.30;99.90;;;;;;5095477;28;19913;-87
2022/09/29 08:38:23;;;;;;;;;;;10.20;99.90;;;;;;5094700;28;19912;-88
2022/09/29 08:40:49;;;;;;;;;;;9.60;99.90;;;;;;5096497;28;20642;-88
2022/09/29 08:43:29;;;;;;;;;;;9.50;99.90;;;;;;5092327;28;19916;-88
2022/09/29 08:45:55;;;;;;;;;;;9.40;99.90;;;;;;5082720;28;20030;-88
2022/09/29 08:48:23;;;;;;;;;;;9.40;99.90;;;;;;5097412;28;20007;-88
2022/09/29 08:50:48;;;;;;;;;;;9.30;99.90;;;;;;5086532;28;19928;-88
2022/09/29 08:53:15;;;;;;;;;;;9.30;99.90;;;;;;5100261;28;20555;-89
2022/09/29 08:55:49;;;;;;;;;;;9.50;99.90;;;;;;5073234;28;19934;-89
2022/09/29 08:58:15;;;;;;;;;;;9.70;99.90;;;;;;5101786;28;20420;-89
2022/09/29 09:00:45;;;;;;;;;;;9.80;99.90;;;;;;5086844;28;19913;-88
2022/09/29 09:03:10;;;;;;;;;;;9.80;99.90;;;;;;5068453;28;20323;-88
2022/09/29 09:05:49;;;;;;;;;;;10.00;99.90;;;;;;5100821;28;19915;-89
2022/09/29 09:08:33;;;;;;;;;;;10.00;99.90;;;;;;5089981;28;19913;-89
2022/09/29 09:10:59;;;;;;;;;;;10.40;99.90;;;;;;5107518;28;19912;-88
2022/09/29 09:13:44;;;;;;;;;;;10.70;99.90;;;;;;5097910;28;19919;-89
2022/09/29 09:16:24;;;;;;;;;;;10.90;99.90;;;;;;5086761;28;19959;-89
2022/09/29 09:18:58;;;;;;;;;;;11.20;99.90;;;;;;5081008;28;20520;-89
2022/09/29 09:21:32;;;;;;;;;;;11.10;99.90;;;;;;5069097;28;20823;-89
2022/09/29 09:24:12;;;;;;;;;;;11.00;99.90;;;;;;5075364;28;19936;-89
2022/09/29 09:26:40;;;;;;;;;;;11.20;99.90;;;;;;5051974;28;20272;-88
2022/09/29 09:29:27;;;;;;;;;;;11.00;99.90;;;;;;5069301;28;20682;-88
2022/09/29 09:31:56;;;;;;;;;;;11.00;99.90;;;;;;5077984;28;20045;-88
2022/09/29 09:34:22;;;;;;;;;;;10.90;99.90;;;;;;5069387;28;19961;-89
2022/09/29 09:37:26;;;;;;;;;;;10.70;99.90;;;;;;5082033;28;20401;-88
2022/09/29 09:39:55;;;;;;;;;;;10.80;99.90;;;;;;5030879;28;19920;-90
2022/09/29 09:42:24;;;;;;;;;;;10.80;99.90;;;;;;5035877;28;20375;-89
2022/09/29 09:44:53;;;;;;;;;;;11.30;99.90;;;;;;5050391;28;19913;-89
2022/09/29 09:47:18;;;;;;;;;;;11.70;99.90;;;;;;5057841;28;20467;-89
2022/09/29 09:49:47;;;;;;;;;;;11.90;99.90;;;;;;5080812;28;19909;-89
2022/09/29 09:52:21;;;;;;;;;;;12.20;99.90;;;;;;5077383;28;19919;-89
2022/09/29 09:55:07;;;;;;;;;;;12.90;99.90;;;;;;5062580;28;19913;-88
2022/09/29 09:57:36;;;;;;;;;;;13.80;99.90;;;;;;5062023;28;19916;-87
2022/09/29 10:00:07;;;;;;;;;;;14.60;99.90;;;;;;5061239;28;19916;-87
2022/09/29 10:02:45;;;;;;;;;;;14.70;99.90;;;;;;5071783;28;19913;-87
2022/09/29 10:05:12;;;;;;;;;;;14.90;99.90;;;;;;5074117;28;19958;-89
2022/09/29 10:07:38;;;;;;;;;;;14.10;99.90;;;;;;5079310;28;20007;-89
2022/09/29 10:10:12;;;;;;;;;;;14.30;99.90;;;;;;5072004;28;19963;-90
2022/09/29 10:12:37;;;;;;;;;;;15.00;99.90;;;;;;5063923;28;19920;-88
2022/09/29 10:15:04;;;;;;;;;;;15.50;99.90;;;;;;5073475;28;20693;-86
2022/09/29 10:17:36;;;;;;;;;;;16.10;99.90;;;;;;5078902;28;19912;-86
2022/09/29 10:30:54;;;;;;;9.65;7.45;;;15.90;99.90;;;;;;6313035;22;1481217;-90
2022/09/29 10:33:24;;;;;;;13.93;9.00;;;13.70;99.90;;;;;;6340195;22;20007;-90
2022/09/29 10:36:10;;;;;;;9.85;5.97;;;14.70;99.90;;;;;;6316893;22;20037;-90
2022/09/29 10:38:36;;;;;;;8.70;6.70;;;15.40;99.90;;;;;;6311658;22;20010;-90
2022/09/29 10:41:06;;;;;;;11.23;6.55;;;14.90;99.90;;;;;;6339647;22;20686;-90
2022/09/29 10:43:47;;;;;;;8.75;6.00;;;14.70;99.90;;;;;;6339701;22;19999;-90
2022/09/29 10:46:35;;;;;;;14.25;6.28;;;14.40;99.90;;;;;;6339089;22;20007;-89
2022/09/29 10:49:17;;;;;;;11.75;5.07;;;14.90;99.90;;;;;;6339790;22;20090;-89
2022/09/29 10:52:15;;;;;;;11.98;5.35;;;15.20;99.90;;;;;;6339899;22;20037;-89
2022/09/29 10:54:57;;;;;;;16.02;6.18;;;15.90;99.90;;;;;;6313501;22;20438;-89
2022/09/29 10:57:29;;;;;;;8.65;4.60;;;16.20;99.90;;;;;;6339919;22;20078;-89
2022/09/29 10:59:56;;;;;;;11.25;4.30;;;15.60;99.90;;;;;;6314289;22;20350;-90
2022/09/29 11:02:38;;;;;;;8.93;4.97;;;15.10;99.90;;;;;;6315260;22;20082;-89
2022/09/29 11:05:30;;;;;;;8.57;4.97;;;15.00;99.90;;;;;;6339091;22;20003;-89
2022/09/29 11:07:56;;;;;;;20.92;8.13;;;15.90;99.90;;;;;;6299882;22;20457;-90
2022/09/29 11:10:35;;;;;;;7.57;4.13;;;15.80;99.90;;;;;;6337864;22;20018;-90
2022/09/29 11:13:19;;;;;;;8.18;4.15;;;15.40;99.90;;;;;;6337166;22;20003;-89
2022/09/29 11:15:45;;;;;;;15.52;5.30;;;15.20;99.90;;;;;;6311708;22;20011;-89
2022/09/29 11:18:37;;;;;;;5.75;3.63;;;15.40;99.90;;;;;;6336654;22;20042;-89
2022/09/29 11:21:18;;;;;;;10.70;4.18;;;15.40;99.90;;;;;;6288792;22;20017;-89
2022/09/29 11:23:56;;;;;;;11.20;4.13;;;15.60;99.90;;;;;;6335929;22;20014;-89
2022/09/29 11:26:34;;;;;;;5.95;3.60;;;16.00;99.90;;;;;;6336903;22;20030;-89
2022/09/29 11:29:33;;;;;;;7.63;3.28;;;16.20;99.90;;;;;;6341702;22;20425;-90
2022/09/29 11:32:17;;;;;;;6.50;3.53;;;16.00;99.90;;;;;;6307063;22;20015;-90
2022/09/29 11:35:04;;;;;;;7.72;3.55;;;15.40;99.90;;;;;;6334595;22;20085;-89
2022/09/29 11:37:45;;;;;;;8.85;3.83;;;15.00;99.90;;;;;;6335247;22;20010;-89
2022/09/29 11:40:37;;;;;;;9.77;4.30;;;15.00;99.90;;;;;;6309405;22;20041;-90
2022/09/29 11:43:40;;;;;;;7.22;4.18;;;15.40;99.90;;;;;;6296934;22;20018;-90
2022/09/29 11:46:38;;;;;;;5.65;3.60;;;16.30;99.90;;;;;;6335085;22;20010;-90
2022/09/29 11:49:30;;;;;;;6.53;4.10;;;16.20;99.90;;;;;;6232710;22;20003;-90
2022/09/29 11:52:11;;;;;;;10.98;3.38;;;15.60;99.90;;;;;;6308825;22;20007;-88
2022/09/29 11:55:18;;;;;;;13.68;4.03;;;15.40;99.90;;;;;;6310081;22;20034;-90
2022/09/29 11:57:59;;;;;;;8.40;3.28;;;15.20;99.90;;;;;;6310476;22;20507;-90
2022/09/29 12:00:37;;;;;;;8.00;3.13;;;14.90;99.90;;;;;;6310635;22;20025;-89
2022/09/29 12:03:29;;;;;;;9.88;4.65;;;14.50;99.90;;;;;;6309682;22;20017;-90
2022/09/29 12:06:28;;;;;;;12.52;4.35;;;14.20;99.90;;;;;;6310368;22;20011;-89
2022/09/29 12:09:11;;;;;;;9.63;4.53;;;14.30;99.90;;;;;;6309967;22;20752;-90
2022/09/29 12:12:17;;;;;;;7.93;4.30;;;14.40;99.90;;;;;;6310543;22;20094;-90
2022/09/29 12:14:55;;;;;;;12.40;4.97;;;14.40;99.90;;;;;;6336810;22;20433;-89
2022/09/29 12:17:24;;;;;;;9.38;4.80;;;14.40;99.90;;;;;;6310116;22;20011;-90
2022/09/29 12:20:28;;;;;;;8.23;4.07;;;14.10;99.90;;;;;;6312587;22;20011;-89
2022/09/29 12:22:59;;;;;;;9.85;4.60;;;14.20;99.90;;;;;;6312695;22;20006;-90
2022/09/29 12:25:29;;;;;;;7.53;4.20;;;14.30;99.90;;;;;;6311917;22;20101;-89
2022/09/29 12:28:21;;;;;;;8.80;4.68;;;14.20;99.90;;;;;;6313053;22;20288;-90
2022/09/29 12:31:07;;;;;;;8.27;4.18;;;14.60;99.90;;;;;;6339208;22;20007;-89
2022/09/29 12:33:59;;;;;;;14.50;4.70;;;14.80;99.90;;;;;;6312033;22;20038;-90
2022/09/29 12:36:43;;;;;;;7.45;3.95;;;14.60;99.90;;;;;;6308280;22;20011;-88
2022/09/29 12:39:39;;;;;;;10.25;4.25;;;14.80;99.90;;;;;;6281178;22;20019;-89
2022/09/29 12:42:30;;;;;;;7.05;4.00;;;14.90;99.90;;;;;;6281237;22;19999;-90
2022/09/29 12:45:15;;;;;;;10.10;5.00;;;14.90;99.90;;;;;;6280596;22;20060;-89
2022/09/29 12:48:04;;;;;;;10.77;3.80;;;15.00;99.90;;;;;;6276077;22;20018;-91
2022/09/29 12:50:41;;;;;;;10.00;3.97;;;14.90;99.90;;;;;;6275275;22;20007;-89
2022/09/29 12:53:34;;;;;;;6.85;3.67;;;14.90;99.90;;;;;;6275558;22;20019;-90
2022/09/29 12:56:24;;;;;;;12.75;5.38;;;14.90;99.90;;;;;;6251672;22;20007;-89
2022/09/29 12:59:02;;;;;;;7.38;4.07;;;14.90;99.90;;;;;;6276881;22;20020;-89
2022/09/29 13:01:38;;;;;;;8.40;3.83;;;15.00;99.90;;;;;;6254256;22;20037;-89
2022/09/29 13:04:49;;;;;;;5.85;3.30;;;15.20;99.90;;;;;;6250509;22;20472;-90
2022/09/29 13:07:38;;;;;;;11.68;4.35;;;15.30;99.90;;;;;;6276259;22;20035;-90
2022/09/29 13:10:40;;;;;;;9.40;3.80;;;15.20;99.90;;;;;;6250552;22;20086;-90
2022/09/29 13:13:15;;;;;;;;;;;15.00;99.90;;;;;;6277224;22;20061;-89
2022/09/29 13:16:20;;;;;;;22.73;10.32;;;15.10;99.90;;;;;;6301931;22;19986;-90
2022/09/29 13:19:15;;;;;;;17.85;7.78;;;15.00;99.90;;;;;;6276072;22;20019;-91
2022/09/29 13:22:20;;;;;;;10.35;5.72;;;14.90;99.90;;;;;;6250684;22;20436;-91
2022/09/29 13:25:13;;;;;;;10.80;3.63;;;14.80;99.90;;;;;;6276555;22;20043;-90
2022/09/29 13:28:06;;;;;;;8.25;3.55;;;15.00;99.90;;;;;;6278543;22;20003;-91
2022/09/29 13:30:35;;;;;;;8.55;4.20;;;15.30;99.90;;;;;;6279801;22;20004;-90
2022/09/29 13:33:22;;;;;;;11.73;4.40;;;15.60;99.90;;;;;;6252187;22;20015;-91
2022/09/29 13:35:50;;;;;;;9.65;3.75;;;15.80;99.90;;;;;;6250314;22;20008;-91
2022/09/29 13:38:36;;;;;;;7.28;3.33;;;16.00;99.90;;;;;;6274655;22;20012;-91
2022/09/29 13:41:11;;;;;;;21.52;4.07;;;16.00;99.90;;;;;;6275458;22;20026;-90
2022/09/29 13:43:57;;;;;;;7.78;3.63;;;15.80;99.90;;;;;;6274567;22;20011;-89
2022/09/29 13:46:36;;;;;;;5.30;2.95;;;15.50;99.90;;;;;;6301593;22;19999;-90
2022/09/29 13:49:07;;;;;;;;;;;15.40;99.90;;;;;;6303026;22;20035;-90
2022/09/29 13:51:41;;;;;;;5.80;3.03;;;15.30;99.90;;;;;;6276281;22;19946;-90
2022/09/29 13:54:25;;;;;;;15.98;8.38;;;15.00;99.90;;;;;;6274677;22;20043;-90
2022/09/29 13:56:57;;;;;;;13.90;4.68;;;14.50;99.90;;;;;;6249483;22;20008;-91
2022/09/29 13:59:31;;;;;;;7.65;3.90;;;14.30;99.90;;;;;;6275393;22;20015;-91
2022/09/29 14:01:58;;;;;;;10.20;3.58;;;14.30;99.90;;;;;;6248753;22;20013;-90
2022/09/29 14:04:49;;;;;;;7.70;3.42;;;13.90;99.90;;;;;;6249504;22;20465;-90
2022/09/29 14:07:48;;;;;;;9.73;3.80;;;13.70;99.90;;;;;;6302737;22;20023;-90
2022/09/29 14:10:42;;;;;;;8.95;3.63;;;13.80;99.90;;;;;;6275933;22;20237;-90
2022/09/29 14:13:16;;;;;;;12.77;3.90;;;14.10;99.90;;;;;;6276702;22;20431;-90
2022/09/29 14:16:10;;;;;;;8.52;2.47;;;14.30;99.90;;;;;;6252444;22;20011;-90
2022/09/29 14:18:53;;;;;;;11.65;3.20;;;14.30;99.90;;;;;;6280975;22;19993;-91
2022/09/29 14:21:52;;;;;;;10.13;3.50;;;14.00;99.90;;;;;;6263892;22;20526;-90
2022/09/29 14:24:33;;;;;;;8.65;2.53;;;13.70;99.90;;;;;;6252705;22;20008;-90
2022/09/29 14:27:28;;;;;;;5.88;2.40;;;13.50;99.90;;;;;;6300603;22;20099;-90
2022/09/29 14:30:11;;;;;;;5.03;2.75;;;13.40;99.90;;;;;;6251349;22;20015;-90
2022/09/29 14:32:56;;;;;;;6.30;3.40;;;13.50;99.90;;;;;;6276466;22;20011;-90
2022/09/29 14:35:32;;;;;;;8.55;2.50;;;13.70;99.90;;;;;;6251037;22;20018;-89
2022/09/29 14:38:00;;;;;;;5.88;4.35;;;13.80;99.90;;;;;;6250028;22;20019;-90
2022/09/29 14:40:33;;;;;;;15.02;3.15;;;13.60;99.90;;;;;;6300302;22;20056;-90